Time,TemperatureF,DewpointF,PressureIn,WindDirection,WindDirectionDegrees,WindSpeedMPH,WindSpeedGustMPH,Humidity,HourlyPrecipIn,Conditions,Clouds,dailyrainin,SoftwareType,DateUTC
2013-08-28 00:01:00,70.6,64.2,27.99,East,90,0.0,0.0,80,0.00,,,0.00,WSDL version 420,2013-08-28 04:01:00,
2013-08-28 00:05:00,70.4,63.9,27.99,East,90,0.0,0.0,80,0.00,,,0.00,WSDL version 420,2013-08-28 04:05:00,
2013-08-28 00:10:00,70.3,63.8,27.99,East,90,0.0,0.0,80,0.00,,,0.00,WSDL version 420,2013-08-28 04:10:00,
2013-08-28 00:15:00,70.2,63.7,27.99,North,-999,-999.0,-999.0,80,0.00,,,0.00,WSDL version 420,2013-08-28 04:15:00,
2013-08-28 00:20:00,70.2,63.7,27.99,North,-999,-999.0,-999.0,80,0.00,,,0.00,WSDL version 420,2013-08-28 04:20:00,
2013-08-28 00:25:00,70.2,63.7,27.99,North,-999,-999.0,-999.0,80,0.00,,,0.00,WSDL version 420,2013-08-28 04:25:00,
2013-08-28 00:30:00,70.2,63.7,27.99,North,-999,-999.0,-999.0,80,0.00,,,0.00,WSDL version 420,2013-08-28 04:30:00,
2013-08-28 00:40:00,70.0,63.5,27.99,North,-999,-999.0,-999.0,80,0.00,,,0.00,WSDL version 420,2013-08-28 04:40:00,
2013-08-28 00:50:00,69.8,63.4,27.99,East,90,0.0,0.0,80,0.00,,,0.00,WSDL version 420,2013-08-28 04:50:00,
2013-08-28 00:55:00,69.7,63.5,27.99,East,90,0.0,0.0,81,0.00,,,0.00,WSDL version 420,2013-08-28 04:55:00,
2013-08-28 01:00:00,69.6,63.6,27.99,East,90,0.0,0.0,81,0.00,,,0.00,WSDL version 420,2013-08-28 05:00:00,
2013-08-28 01:05:00,69.6,63.6,27.99,East,90,0.0,0.0,81,0.00,,,0.00,WSDL version 420,2013-08-28 05:05:00,
2013-08-28 01:10:00,69.4,63.1,27.99,East,90,0.0,0.0,80,0.00,,,0.00,WSDL version 420,2013-08-28 05:10:00,
2013-08-28 01:15:00,69.3,63.0,27.99,East,90,0.0,0.0,81,0.00,,,0.00,WSDL version 420,2013-08-28 05:15:00,
2013-08-28 01:20:00,69.0,62.7,27.99,East,90,0.0,0.0,80,0.00,,,0.00,WSDL version 420,2013-08-28 05:20:00,
2013-08-28 01:25:00,68.7,62.5,27.99,East,90,0.0,0.0,81,0.00,,,0.00,WSDL version 420,2013-08-28 05:25:00,
2013-08-28 01:30:00,68.9,62.9,27.99,East,90,0.0,0.0,81,-99.99,,,-99.99,WSDL version 420,2013-08-28 05:30:00,
2013-08-28 01:35:00,69.0,63.0,27.99,East,90,0.0,0.0,81,0.00,,,0.00,WSDL version 420,2013-08-28 05:35:00,
2013-08-28 01:40:00,69.1,63.0,27.99,East,90,0.0,0.0,81,0.00,,,0.00,WSDL version 420,2013-08-28 05:40:00,
2013-08-28 01:45:00,69.0,63.0,27.99,East,90,0.0,0.0,81,0.00,,,0.00,WSDL version 420,2013-08-28 05:45:00,
2013-08-28 01:50:00,68.9,62.9,27.99,East,90,0.0,0.0,81,0.00,,,0.00,WSDL version 420,2013-08-28 05:50:00,
2013-08-28 01:55:00,68.9,62.9,27.99,East,90,0.0,0.0,81,0.00,,,0.00,WSDL version 420,2013-08-28 05:55:00,
2013-08-28 02:00:00,68.9,62.9,27.99,East,90,0.0,0.0,81,0.00,,,0.00,WSDL version 420,2013-08-28 06:00:00,
2013-08-28 02:05:00,68.9,62.9,27.99,East,90,0.0,0.0,81,0.00,,,0.00,WSDL version 420,2013-08-28 06:05:00,
2013-08-28 02:10:00,68.7,62.7,27.99,East,90,0.0,0.0,81,0.00,,,0.00,WSDL version 420,2013-08-28 06:10:00,
2013-08-28 02:15:00,68.7,62.7,27.99,East,90,0.0,0.0,81,0.00,,,0.00,WSDL version 420,2013-08-28 06:15:00,
2013-08-28 02:20:00,68.7,62.7,27.99,East,90,0.0,0.0,81,0.00,,,0.00,WSDL version 420,2013-08-28 06:20:00,
2013-08-28 02:25:00,68.7,62.7,27.99,East,90,0.0,0.0,81,0.00,,,0.00,WSDL version 420,2013-08-28 06:25:00,
2013-08-28 02:30:00,68.7,63.0,27.96,East,90,0.0,0.0,82,0.00,,,0.00,WSDL version 420,2013-08-28 06:30:00,
2013-08-28 02:35:00,68.7,63.1,27.96,East,90,0.0,0.0,82,0.00,,,0.00,WSDL version 420,2013-08-28 06:35:00,
2013-08-28 02:40:00,68.6,63.0,27.96,East,90,0.0,0.0,82,0.00,,,0.00,WSDL version 420,2013-08-28 06:40:00,
2013-08-28 02:45:00,68.5,62.9,27.96,East,90,0.0,0.0,82,0.00,,,0.00,WSDL version 420,2013-08-28 06:45:00,
2013-08-28 02:50:00,68.5,62.9,27.96,East,90,0.0,0.0,82,0.00,,,0.00,WSDL version 420,2013-08-28 06:50:00,
2013-08-28 02:55:00,68.3,62.4,27.96,East,90,0.0,0.0,81,0.00,,,0.00,WSDL version 420,2013-08-28 06:55:00,
2013-08-28 03:00:00,68.2,62.2,27.96,East,90,0.0,0.0,81,0.00,,,0.00,WSDL version 420,2013-08-28 07:00:00,
2013-08-28 03:05:00,68.2,62.6,27.96,East,90,0.0,0.0,82,0.00,,,0.00,WSDL version 420,2013-08-28 07:05:00,
2013-08-28 03:10:00,68.4,62.7,27.96,North,-999,-999.0,-999.0,82,0.00,,,0.00,WSDL version 420,2013-08-28 07:10:00,
2013-08-28 03:15:00,68.4,62.8,27.96,North,-999,-999.0,-999.0,82,0.00,,,0.00,WSDL version 420,2013-08-28 07:15:00,
2013-08-28 03:20:00,68.5,63.3,27.96,East,90,0.0,0.0,83,0.00,,,0.00,WSDL version 420,2013-08-28 07:20:00,
2013-08-28 03:25:00,68.7,63.4,27.96,East,90,0.0,0.0,83,0.00,,,0.00,WSDL version 420,2013-08-28 07:25:00,
2013-08-28 03:30:00,68.3,63.1,27.96,East,90,0.0,0.0,83,0.00,,,0.00,WSDL version 420,2013-08-28 07:30:00,
2013-08-28 03:35:00,68.2,62.9,27.96,East,90,0.0,0.0,83,0.00,,,0.00,WSDL version 420,2013-08-28 07:35:00,
2013-08-28 03:40:00,68.2,62.9,27.96,North,-999,-999.0,-999.0,83,0.00,,,0.00,WSDL version 420,2013-08-28 07:40:00,
2013-08-28 03:45:00,68.2,62.9,27.96,North,-999,-999.0,-999.0,83,0.00,,,0.00,WSDL version 420,2013-08-28 07:45:00,
2013-08-28 03:50:00,68.2,62.9,27.96,North,-999,-999.0,-999.0,83,0.00,,,0.00,WSDL version 420,2013-08-28 07:50:00,
2013-08-28 03:55:00,68.0,62.8,27.96,North,-999,-999.0,-999.0,83,0.00,,,0.00,WSDL version 420,2013-08-28 07:55:00,
2013-08-28 04:00:00,68.0,62.8,27.96,North,-999,-999.0,-999.0,83,0.00,,,0.00,WSDL version 420,2013-08-28 08:00:00,
2013-08-28 04:05:00,68.0,63.0,27.96,North,-999,-999.0,-999.0,84,0.00,,,0.00,WSDL version 420,2013-08-28 08:05:00,
2013-08-28 04:10:00,68.1,63.2,27.96,North,-999,-999.0,-999.0,84,0.00,,,0.00,WSDL version 420,2013-08-28 08:10:00,
2013-08-28 04:15:00,68.0,63.1,27.96,South,180,0.0,0.0,84,0.00,,,0.00,WSDL version 420,2013-08-28 08:15:00,
2013-08-28 04:20:00,68.0,63.1,27.96,South,180,0.0,0.0,84,0.00,,,0.00,WSDL version 420,2013-08-28 08:20:00,
2013-08-28 04:25:00,68.0,63.1,27.96,South,180,0.0,0.0,84,0.00,,,0.00,WSDL version 420,2013-08-28 08:25:00,
2013-08-28 04:30:00,68.0,63.5,27.96,South,180,0.0,0.0,86,0.00,,,0.00,WSDL version 420,2013-08-28 08:30:00,
2013-08-28 04:35:00,67.9,63.5,27.96,South,180,0.0,0.0,86,0.00,,,0.00,WSDL version 420,2013-08-28 08:35:00,
2013-08-28 04:40:00,67.8,63.2,27.96,South,180,0.0,0.0,84,0.00,,,0.00,WSDL version 420,2013-08-28 08:40:00,
2013-08-28 04:45:00,67.6,62.8,27.96,South,180,0.0,0.0,84,0.00,,,0.00,WSDL version 420,2013-08-28 08:45:00,
2013-08-28 04:50:00,67.5,62.7,27.96,South,180,0.0,0.0,84,0.00,,,0.00,WSDL version 420,2013-08-28 08:50:00,
2013-08-28 04:55:00,67.6,62.8,27.96,South,180,0.0,0.0,84,0.00,,,0.00,WSDL version 420,2013-08-28 08:55:00,
2013-08-28 05:00:00,67.5,62.6,27.96,South,180,0.0,0.0,84,0.00,,,0.00,WSDL version 420,2013-08-28 09:00:00,
2013-08-28 05:05:00,67.5,62.6,27.96,South,180,0.0,0.0,84,0.00,,,0.00,WSDL version 420,2013-08-28 09:05:00,
2013-08-28 05:10:00,67.5,62.6,27.96,South,180,0.0,0.0,84,0.00,,,0.00,WSDL version 420,2013-08-28 09:10:00,
2013-08-28 05:15:00,67.5,63.0,27.96,SE,146,0.0,0.0,86,0.00,,,0.00,WSDL version 420,2013-08-28 09:15:00,
2013-08-28 05:20:00,67.6,63.1,27.96,ESE,113,0.0,0.0,86,0.00,,,0.00,WSDL version 420,2013-08-28 09:20:00,
2013-08-28 05:25:00,67.5,63.0,27.96,ESE,113,0.0,0.0,86,0.00,,,0.00,WSDL version 420,2013-08-28 09:25:00,
2013-08-28 05:30:00,67.6,63.1,27.96,ESE,113,0.0,0.0,86,0.00,,,0.00,WSDL version 420,2013-08-28 09:30:00,
2013-08-28 05:35:00,67.6,63.1,27.96,ESE,113,0.0,0.0,86,0.00,,,0.00,WSDL version 420,2013-08-28 09:35:00,
2013-08-28 05:40:00,67.5,63.0,27.96,ESE,113,0.0,0.0,86,0.00,,,0.00,WSDL version 420,2013-08-28 09:40:00,
2013-08-28 05:45:00,67.6,63.2,27.96,ESE,113,0.0,0.0,86,0.00,,,0.00,WSDL version 420,2013-08-28 09:45:00,
2013-08-28 05:50:00,67.6,63.2,27.96,ESE,113,0.0,0.0,86,0.00,,,0.00,WSDL version 420,2013-08-28 09:50:00,
2013-08-28 05:55:00,67.6,63.2,27.96,ESE,113,0.0,0.0,86,0.00,,,0.00,WSDL version 420,2013-08-28 09:55:00,
2013-08-28 06:00:00,67.6,63.4,27.96,ESE,113,0.0,0.0,87,0.00,,,0.00,WSDL version 420,2013-08-28 10:00:00,
2013-08-28 06:05:00,67.6,63.5,27.96,ESE,113,0.0,0.0,87,0.00,,,0.00,WSDL version 420,2013-08-28 10:05:00,
2013-08-28 06:10:00,67.8,63.9,27.96,ESE,113,0.0,0.0,88,0.00,,,0.00,WSDL version 420,2013-08-28 10:10:00,
2013-08-28 06:15:00,67.8,64.0,27.96,ESE,113,0.0,0.0,88,0.00,,,0.00,WSDL version 420,2013-08-28 10:15:00,
2013-08-28 06:20:00,67.7,64.0,27.96,ESE,113,0.0,0.0,88,0.00,,,0.00,WSDL version 420,2013-08-28 10:20:00,
2013-08-28 06:25:00,67.6,63.9,27.96,ESE,113,0.0,0.0,88,0.00,,,0.00,WSDL version 420,2013-08-28 10:25:00,
2013-08-28 06:30:00,67.7,64.0,27.96,ESE,113,0.0,0.0,88,0.00,,,0.00,WSDL version 420,2013-08-28 10:30:00,
2013-08-28 06:35:00,67.8,64.1,27.96,ESE,113,0.0,0.0,88,0.00,,,0.00,WSDL version 420,2013-08-28 10:35:00,
2013-08-28 06:40:00,67.8,64.1,27.96,North,-999,-999.0,-999.0,88,0.00,,,0.00,WSDL version 420,2013-08-28 10:40:00,
2013-08-28 06:45:00,67.8,64.1,27.96,East,90,0.0,0.0,88,0.00,,,0.00,WSDL version 420,2013-08-28 10:45:00,
2013-08-28 06:50:00,68.0,64.2,27.96,NE,45,0.0,0.0,88,0.00,,,0.00,WSDL version 420,2013-08-28 10:50:00,
2013-08-28 06:55:00,68.0,64.2,27.96,NE,45,0.0,0.0,88,0.00,,,0.00,WSDL version 420,2013-08-28 10:55:00,
2013-08-28 07:00:00,68.2,64.5,27.96,ENE,68,0.0,0.0,89,0.00,,,0.00,WSDL version 420,2013-08-28 11:00:00,
2013-08-28 07:05:00,68.2,64.8,27.96,ENE,68,0.0,0.0,89,0.00,,,0.00,WSDL version 420,2013-08-28 11:05:00,
2013-08-28 07:10:00,68.4,65.0,27.96,ENE,68,0.0,0.0,89,0.00,,,0.00,WSDL version 420,2013-08-28 11:10:00,
2013-08-28 07:15:00,68.4,65.0,27.96,ENE,68,0.0,0.0,89,0.00,,,0.00,WSDL version 420,2013-08-28 11:15:00,
2013-08-28 07:20:00,68.4,65.0,27.96,ENE,68,0.0,0.0,89,0.00,,,0.00,WSDL version 420,2013-08-28 11:20:00,
2013-08-28 07:25:00,68.4,65.0,27.96,NE,45,0.0,0.0,89,0.00,,,0.00,WSDL version 420,2013-08-28 11:25:00,
2013-08-28 07:30:00,68.5,65.1,27.96,NE,45,0.0,0.0,89,0.00,,,0.00,WSDL version 420,2013-08-28 11:30:00,
2013-08-28 07:35:00,68.5,65.1,27.96,NE,45,0.0,0.0,89,0.00,,,0.00,WSDL version 420,2013-08-28 11:35:00,
2013-08-28 07:40:00,68.5,65.1,27.96,NE,45,0.0,0.0,89,0.00,,,0.00,WSDL version 420,2013-08-28 11:40:00,
2013-08-28 07:45:00,68.7,65.3,27.96,North,360,0.0,0.0,89,0.00,,,0.00,WSDL version 420,2013-08-28 11:45:00,
2013-08-28 07:50:00,68.7,65.3,27.96,North,360,0.0,0.0,89,0.00,,,0.00,WSDL version 420,2013-08-28 11:50:00,
2013-08-28 07:55:00,68.9,65.5,27.96,NNE,15,0.0,0.0,89,0.00,,,0.00,WSDL version 420,2013-08-28 11:55:00,
2013-08-28 08:00:00,68.9,65.5,27.96,NNE,23,0.0,0.0,89,0.00,,,0.00,WSDL version 420,2013-08-28 12:00:00,
2013-08-28 08:05:00,69.1,65.9,27.96,NNE,23,0.0,0.0,90,0.00,,,0.00,WSDL version 420,2013-08-28 12:05:00,
2013-08-28 08:10:00,69.1,66.0,27.96,NNE,23,0.0,0.0,90,0.00,,,0.00,WSDL version 420,2013-08-28 12:10:00,
2013-08-28 08:15:00,69.1,66.1,27.96,SSW,203,0.0,0.0,90,0.00,,,0.00,WSDL version 420,2013-08-28 12:15:00,
2013-08-28 08:20:00,69.3,66.2,27.96,SSE,158,1.1,1.1,90,0.00,,,0.00,WSDL version 420,2013-08-28 12:20:00,
2013-08-28 08:25:00,69.3,66.2,27.96,WSW,248,0.9,1.1,90,0.00,,,0.00,WSDL version 420,2013-08-28 12:25:00,
2013-08-28 08:30:00,69.3,66.0,27.96,WSW,248,0.9,1.1,89,0.00,,,0.00,WSDL version 420,2013-08-28 12:30:00,
2013-08-28 08:35:00,69.3,65.8,27.96,ENE,68,1.3,1.3,89,0.00,,,0.00,WSDL version 420,2013-08-28 12:35:00,
2013-08-28 08:40:00,69.4,66.0,27.96,ENE,68,1.3,1.3,89,0.00,,,0.00,WSDL version 420,2013-08-28 12:40:00,
2013-08-28 08:45:00,69.4,66.0,27.96,ENE,68,1.3,1.3,89,0.00,,,0.00,WSDL version 420,2013-08-28 12:45:00,
2013-08-28 08:50:00,69.5,66.1,27.96,SSW,203,0.0,1.3,89,0.00,,,0.00,WSDL version 420,2013-08-28 12:50:00,
2013-08-28 08:55:00,69.6,66.2,27.96,SSW,203,0.0,1.3,89,0.00,,,0.00,WSDL version 420,2013-08-28 12:55:00,
2013-08-28 09:00:00,69.8,66.3,27.96,WNW,293,0.0,0.0,89,0.00,,,0.00,WSDL version 420,2013-08-28 13:00:00,
2013-08-28 09:05:00,69.8,66.4,27.96,WNW,293,1.1,1.1,89,0.00,,,0.00,WSDL version 420,2013-08-28 13:05:00,
2013-08-28 09:10:00,69.9,66.1,27.96,WSW,248,0.0,1.1,88,0.00,,,0.00,WSDL version 420,2013-08-28 13:10:00,
2013-08-28 09:15:00,70.0,66.3,27.99,NNW,338,0.0,1.1,88,0.00,,,0.00,WSDL version 420,2013-08-28 13:15:00,
2013-08-28 09:20:00,70.2,66.4,27.99,NW,315,0.0,0.0,88,0.00,,,0.00,WSDL version 420,2013-08-28 13:20:00,
2013-08-28 09:25:00,70.4,66.6,27.99,SW,225,0.0,0.0,88,0.00,,,0.00,WSDL version 420,2013-08-28 13:25:00,
2013-08-28 09:30:00,70.9,67.0,27.99,SSW,203,1.3,1.3,87,0.00,,,0.00,WSDL version 420,2013-08-28 13:30:00,
2013-08-28 09:35:00,71.0,66.8,27.99,WSW,248,2.0,2.0,87,0.00,,,0.00,WSDL version 420,2013-08-28 13:35:00,
2013-08-28 09:40:00,71.1,66.9,27.99,NW,315,0.0,2.0,87,0.00,,,0.00,WSDL version 420,2013-08-28 13:40:00,
2013-08-28 09:45:00,71.3,67.1,27.96,WSW,248,2.0,2.0,87,0.00,,,0.00,WSDL version 420,2013-08-28 13:45:00,
2013-08-28 09:50:00,71.4,67.2,27.96,SSE,158,0.0,2.0,87,0.00,,,0.00,WSDL version 420,2013-08-28 13:50:00,
2013-08-28 09:55:00,71.2,66.7,27.96,East,90,2.2,2.2,86,0.00,,,0.00,WSDL version 420,2013-08-28 13:55:00,
2013-08-28 10:00:00,71.2,66.7,27.99,SSW,203,0.0,2.2,86,0.00,,,0.00,WSDL version 420,2013-08-28 14:00:00,
2013-08-28 10:05:00,71.2,66.7,27.99,West,270,0.0,1.6,86,0.00,,,0.00,WSDL version 420,2013-08-28 14:05:00,
2013-08-28 10:10:00,71.4,66.8,27.99,West,270,0.0,1.6,86,0.00,,,0.00,WSDL version 420,2013-08-28 14:10:00,
2013-08-28 10:15:00,71.5,67.0,27.99,West,270,0.0,0.0,86,0.00,,,0.00,WSDL version 420,2013-08-28 14:15:00,
2013-08-28 10:20:00,71.8,67.1,27.99,North,-999,-999.0,-999.0,84,0.00,,,0.00,WSDL version 420,2013-08-28 14:20:00,
2013-08-28 10:25:00,71.7,66.7,27.99,North,-999,-999.0,-999.0,84,0.00,,,0.00,WSDL version 420,2013-08-28 14:25:00,
2013-08-28 10:30:00,71.9,66.9,27.99,North,-999,-999.0,-999.0,84,0.00,,,0.00,WSDL version 420,2013-08-28 14:30:00,
2013-08-28 10:35:00,72.0,67.0,27.99,North,-999,-999.0,-999.0,84,0.00,,,0.00,WSDL version 420,2013-08-28 14:35:00,
2013-08-28 10:40:00,72.1,67.2,27.99,North,-999,-999.0,-999.0,84,0.00,,,0.00,WSDL version 420,2013-08-28 14:40:00,
2013-08-28 10:45:00,72.3,67.4,27.99,North,-999,-999.0,-999.0,84,0.00,,,0.00,WSDL version 420,2013-08-28 14:45:00,
2013-08-28 10:50:00,72.4,67.2,27.99,SSW,203,0.0,0.0,83,0.00,,,0.00,WSDL version 420,2013-08-28 14:50:00,
2013-08-28 10:55:00,72.7,67.3,27.99,SSW,203,0.0,0.0,83,0.00,,,0.00,WSDL version 420,2013-08-28 14:55:00,
2013-08-28 11:00:00,72.7,67.3,27.99,SSW,203,0.0,0.0,83,0.00,,,0.00,WSDL version 420,2013-08-28 15:00:00,
2013-08-28 11:05:00,72.7,67.3,27.99,SSW,203,0.0,0.0,83,0.00,,,0.00,WSDL version 420,2013-08-28 15:05:00,
2013-08-28 11:10:00,72.7,67.3,27.99,North,-999,-999.0,-999.0,83,0.00,,,0.00,WSDL version 420,2013-08-28 15:10:00,
2013-08-28 11:15:00,72.7,67.3,27.99,North,-999,-999.0,-999.0,83,0.00,,,0.00,WSDL version 420,2013-08-28 15:15:00,
2013-08-28 11:20:00,72.7,67.3,27.99,NW,315,1.1,1.1,83,0.00,,,0.00,WSDL version 420,2013-08-28 15:20:00,
2013-08-28 11:25:00,72.8,67.2,27.99,WNW,293,0.0,1.1,82,0.00,,,0.00,WSDL version 420,2013-08-28 15:25:00,
2013-08-28 11:30:00,72.9,67.1,27.99,WNW,293,0.0,0.0,82,0.00,,,0.00,WSDL version 420,2013-08-28 15:30:00,
2013-08-28 11:35:00,72.9,67.1,27.99,WNW,293,0.0,0.0,82,0.00,,,0.00,WSDL version 420,2013-08-28 15:35:00,
2013-08-28 11:40:00,73.0,67.3,27.99,WNW,293,0.0,0.0,82,0.00,,,0.00,WSDL version 420,2013-08-28 15:40:00,
2013-08-28 11:45:00,73.2,67.5,27.99,WNW,293,0.0,0.0,83,0.00,,,0.00,WSDL version 420,2013-08-28 15:45:00,
2013-08-28 11:50:00,73.5,67.7,27.99,WNW,293,0.0,0.0,82,0.00,,,0.00,WSDL version 420,2013-08-28 15:50:00,
2013-08-28 11:55:00,73.6,67.7,27.99,North,-999,-999.0,-999.0,81,0.00,,,0.00,WSDL version 420,2013-08-28 15:55:00,
2013-08-28 12:00:00,73.9,67.7,27.99,North,-999,-999.0,-999.0,81,0.00,,,0.00,WSDL version 420,2013-08-28 16:00:00,
2013-08-28 12:05:00,73.9,67.8,27.99,North,-999,-999.0,-999.0,81,0.00,,,0.00,WSDL version 420,2013-08-28 16:05:00,
2013-08-28 12:10:00,74.3,68.1,27.99,North,-999,-999.0,-999.0,81,0.00,,,0.00,WSDL version 420,2013-08-28 16:10:00,
2013-08-28 12:15:00,74.6,68.0,27.99,North,-999,-999.0,-999.0,80,0.00,,,0.00,WSDL version 420,2013-08-28 16:15:00,
2013-08-28 12:20:00,75.4,68.5,27.99,North,-999,-999.0,-999.0,79,0.00,,,0.00,WSDL version 420,2013-08-28 16:20:00,
2013-08-28 12:25:00,75.9,68.9,27.99,North,-999,-999.0,-999.0,79,0.00,,,0.00,WSDL version 420,2013-08-28 16:25:00,
2013-08-28 12:30:00,75.8,68.5,27.96,North,-999,-999.0,-999.0,78,0.00,,,0.00,WSDL version 420,2013-08-28 16:30:00,
2013-08-28 12:35:00,75.9,68.6,27.96,North,-999,-999.0,-999.0,78,0.00,,,0.00,WSDL version 420,2013-08-28 16:35:00,
2013-08-28 12:40:00,76.5,68.8,27.96,North,-999,-999.0,-999.0,77,0.00,,,0.00,WSDL version 420,2013-08-28 16:40:00,
2013-08-28 12:45:00,76.9,68.9,27.96,North,-999,-999.0,-999.0,76,0.00,,,0.00,WSDL version 420,2013-08-28 16:45:00,
2013-08-28 12:50:00,77.0,68.5,27.96,North,-999,-999.0,-999.0,75,0.00,,,0.00,WSDL version 420,2013-08-28 16:50:00,
2013-08-28 12:55:00,77.2,68.4,27.96,North,-999,-999.0,-999.0,74,0.00,,,0.00,WSDL version 420,2013-08-28 16:55:00,
2013-08-28 13:00:00,78.1,68.9,27.96,North,-999,-999.0,-999.0,73,0.00,,,0.00,WSDL version 420,2013-08-28 17:00:00,
2013-08-28 13:05:00,78.0,68.3,27.96,ESE,113,3.6,3.6,72,0.00,,,0.00,WSDL version 420,2013-08-28 17:05:00,
2013-08-28 13:10:00,78.1,68.4,27.96,SSE,158,1.8,3.6,72,-99.99,,,-99.99,WSDL version 420,2013-08-28 17:10:00,
2013-08-28 13:15:00,78.5,68.7,27.96,West,263,2.8,3.6,72,0.00,,,0.00,WSDL version 420,2013-08-28 17:15:00,
2013-08-28 13:20:00,78.9,68.7,27.96,ENE,68,0.9,2.9,71,0.00,,,0.00,WSDL version 420,2013-08-28 17:20:00,
2013-08-28 13:25:00,78.7,68.1,27.96,East,90,2.9,2.9,70,0.00,,,0.00,WSDL version 420,2013-08-28 17:25:00,
2013-08-28 13:30:00,78.2,67.6,27.96,East,90,2.9,2.9,70,0.00,,,0.00,WSDL version 420,2013-08-28 17:30:00,
2013-08-28 13:35:00,78.6,68.1,27.96,WSW,248,1.3,2.9,70,0.00,,,0.00,WSDL version 420,2013-08-28 17:35:00,
2013-08-28 13:40:00,79.1,68.1,27.96,WSW,248,1.3,1.3,69,0.00,,,0.00,WSDL version 420,2013-08-28 17:40:00,
2013-08-28 13:45:00,79.3,68.0,27.96,SSE,158,0.0,1.3,68,0.00,,,0.00,WSDL version 420,2013-08-28 17:45:00,
2013-08-28 13:50:00,78.9,67.5,27.96,SSE,158,0.0,1.3,68,0.00,,,0.00,WSDL version 420,2013-08-28 17:50:00,
2013-08-28 13:55:00,79.3,67.8,27.96,SSE,158,0.0,0.0,68,-99.99,,,-99.99,WSDL version 420,2013-08-28 17:55:00,
2013-08-28 14:00:00,79.3,67.8,27.96,East,90,2.5,2.5,68,0.00,,,0.00,WSDL version 420,2013-08-28 18:00:00,
2013-08-28 14:05:00,79.8,68.3,27.96,West,270,2.0,2.5,68,0.00,,,0.00,WSDL version 420,2013-08-28 18:05:00,
2013-08-28 14:10:00,80.5,69.0,27.96,West,270,2.0,2.0,68,0.00,,,0.00,WSDL version 420,2013-08-28 18:10:00,
2013-08-28 14:15:00,81.2,69.2,27.96,West,270,2.0,2.0,67,0.00,,,0.00,WSDL version 420,2013-08-28 18:15:00,
2013-08-28 14:20:00,81.0,68.6,27.96,North,-999,-999.0,-999.0,66,0.00,,,0.00,WSDL version 420,2013-08-28 18:20:00,
2013-08-28 14:25:00,81.3,69.1,27.96,North,-999,-999.0,-999.0,67,0.00,,,0.00,WSDL version 420,2013-08-28 18:25:00,
2013-08-28 14:30:00,81.8,69.2,27.94,North,-999,-999.0,-999.0,65,0.00,,,0.00,WSDL version 420,2013-08-28 18:30:00,
2013-08-28 14:35:00,81.1,68.3,27.94,North,-999,-999.0,-999.0,65,0.00,,,0.00,WSDL version 420,2013-08-28 18:35:00,
2013-08-28 14:40:00,81.0,68.0,27.94,SSW,203,1.3,1.3,64,0.00,,,0.00,WSDL version 420,2013-08-28 18:40:00,
2013-08-28 14:45:00,80.7,67.4,27.94,SSW,203,1.3,1.3,64,0.00,,,0.00,WSDL version 420,2013-08-28 18:45:00,
2013-08-28 14:50:00,80.4,67.1,27.94,SSW,203,1.3,1.3,64,0.00,,,0.00,WSDL version 420,2013-08-28 18:50:00,
2013-08-28 14:55:00,80.9,67.6,27.94,North,-999,-999.0,-999.0,64,0.00,,,0.00,WSDL version 420,2013-08-28 18:55:00,
2013-08-28 15:00:00,80.6,67.1,27.94,North,-999,-999.0,-999.0,63,0.00,,,0.00,WSDL version 420,2013-08-28 19:00:00,
2013-08-28 15:05:00,81.1,67.3,27.94,North,-999,-999.0,-999.0,63,0.00,,,0.00,WSDL version 420,2013-08-28 19:05:00,
2013-08-28 15:10:00,82.0,68.0,27.94,North,-999,-999.0,-999.0,62,0.00,,,0.00,WSDL version 420,2013-08-28 19:10:00,
2013-08-28 15:15:00,82.3,67.7,27.94,North,-999,-999.0,-999.0,61,0.00,,,0.00,WSDL version 420,2013-08-28 19:15:00,
2013-08-28 15:20:00,82.3,67.2,27.94,North,-999,-999.0,-999.0,60,0.00,,,0.00,WSDL version 420,2013-08-28 19:20:00,
2013-08-28 15:25:00,82.3,67.3,27.94,North,-999,-999.0,-999.0,60,0.00,,,0.00,WSDL version 420,2013-08-28 19:25:00,
2013-08-28 15:30:00,82.4,66.6,27.94,North,-999,-999.0,-999.0,59,0.00,,,0.00,WSDL version 420,2013-08-28 19:30:00,
2013-08-28 15:35:00,82.2,66.4,27.94,North,-999,-999.0,-999.0,59,0.00,,,0.00,WSDL version 420,2013-08-28 19:35:00,
2013-08-28 15:40:00,82.2,66.1,27.94,North,-999,-999.0,-999.0,58,0.00,,,0.00,WSDL version 420,2013-08-28 19:40:00,
2013-08-28 15:45:00,81.4,65.4,27.94,North,-999,-999.0,-999.0,58,0.00,,,0.00,WSDL version 420,2013-08-28 19:45:00,
2013-08-28 15:50:00,81.4,65.2,27.94,North,-999,-999.0,-999.0,58,-99.99,,,-99.99,WSDL version 420,2013-08-28 19:50:00,
2013-08-28 15:55:00,81.1,64.7,27.94,North,-999,-999.0,-999.0,57,0.00,,,0.00,WSDL version 420,2013-08-28 19:55:00,
2013-08-28 16:00:00,81.3,64.6,27.91,North,-999,-999.0,-999.0,57,0.00,,,0.00,WSDL version 420,2013-08-28 20:00:00,
2013-08-28 16:05:00,81.6,64.9,27.91,North,-999,-999.0,-999.0,57,0.00,,,0.00,WSDL version 420,2013-08-28 20:05:00,
2013-08-28 16:10:00,82.1,65.0,27.91,North,-999,-999.0,-999.0,56,0.00,,,0.00,WSDL version 420,2013-08-28 20:10:00,
2013-08-28 16:15:00,82.5,65.3,27.91,North,-999,-999.0,-999.0,56,0.00,,,0.00,WSDL version 420,2013-08-28 20:15:00,
2013-08-28 16:20:00,82.5,65.0,27.91,North,-999,-999.0,-999.0,55,0.00,,,0.00,WSDL version 420,2013-08-28 20:20:00,
2013-08-28 16:25:00,82.2,64.7,27.91,North,-999,-999.0,-999.0,56,0.00,,,0.00,WSDL version 420,2013-08-28 20:25:00,
2013-08-28 16:30:00,82.5,64.7,27.91,North,-999,-999.0,-999.0,55,0.00,,,0.00,WSDL version 420,2013-08-28 20:30:00,
2013-08-28 16:40:00,82.8,65.0,27.91,North,-999,-999.0,-999.0,55,0.00,,,0.00,WSDL version 420,2013-08-28 20:40:00,
2013-08-28 16:45:00,83.1,65.3,27.91,North,-999,-999.0,-999.0,55,0.00,,,0.00,WSDL version 420,2013-08-28 20:45:00,
2013-08-28 16:50:00,83.1,64.7,27.91,North,-999,-999.0,-999.0,54,0.00,,,0.00,WSDL version 420,2013-08-28 20:50:00,
2013-08-28 16:55:00,83.1,64.8,27.91,North,-999,-999.0,-999.0,54,0.00,,,0.00,WSDL version 420,2013-08-28 20:55:00,
2013-08-28 17:00:00,83.0,64.5,27.91,North,-999,-999.0,-999.0,54,0.00,,,0.00,WSDL version 420,2013-08-28 21:00:00,
2013-08-28 17:05:00,83.1,64.2,27.91,North,-999,-999.0,-999.0,53,0.00,,,0.00,WSDL version 420,2013-08-28 21:05:00,
2013-08-28 17:10:00,83.3,64.4,27.91,North,-999,-999.0,-999.0,53,0.00,,,0.00,WSDL version 420,2013-08-28 21:10:00,
2013-08-28 17:15:00,83.2,64.5,27.91,North,-999,-999.0,-999.0,54,0.00,,,0.00,WSDL version 420,2013-08-28 21:15:00,
2013-08-28 17:20:00,83.0,64.7,27.91,North,-999,-999.0,-999.0,54,0.00,,,0.00,WSDL version 420,2013-08-28 21:20:00,
2013-08-28 17:25:00,82.8,64.1,27.91,North,-999,-999.0,-999.0,54,0.00,,,0.00,WSDL version 420,2013-08-28 21:25:00,
2013-08-28 17:30:00,82.8,64.4,27.91,North,-999,-999.0,-999.0,54,0.00,,,0.00,WSDL version 420,2013-08-28 21:30:00,
2013-08-28 17:35:00,82.0,63.8,27.91,North,-999,-999.0,-999.0,54,0.00,,,0.00,WSDL version 420,2013-08-28 21:35:00,
2013-08-28 17:40:00,82.3,64.0,27.91,North,-999,-999.0,-999.0,54,0.00,,,0.00,WSDL version 420,2013-08-28 21:40:00,
2013-08-28 17:45:00,82.2,63.7,27.91,North,-999,-999.0,-999.0,54,0.00,,,0.00,WSDL version 420,2013-08-28 21:45:00,
2013-08-28 17:50:00,81.4,63.2,27.91,North,-999,-999.0,-999.0,54,0.00,,,0.00,WSDL version 420,2013-08-28 21:50:00,
2013-08-28 17:55:00,81.7,63.3,27.91,North,-999,-999.0,-999.0,54,0.00,,,0.00,WSDL version 420,2013-08-28 21:55:00,
2013-08-28 18:00:00,82.0,63.2,27.91,North,-999,-999.0,-999.0,53,0.00,,,0.00,WSDL version 420,2013-08-28 22:00:00,
2013-08-28 18:05:00,82.2,63.4,27.91,North,-999,-999.0,-999.0,53,0.00,,,0.00,WSDL version 420,2013-08-28 22:05:00,
2013-08-28 18:10:00,82.1,63.3,27.91,North,-999,-999.0,-999.0,53,0.00,,,0.00,WSDL version 420,2013-08-28 22:10:00,
2013-08-28 18:15:00,81.9,62.7,27.91,North,-999,-999.0,-999.0,52,0.00,,,0.00,WSDL version 420,2013-08-28 22:15:00,
2013-08-28 18:20:00,81.9,62.5,27.91,North,-999,-999.0,-999.0,52,0.00,,,0.00,WSDL version 420,2013-08-28 22:20:00,
2013-08-28 18:25:00,81.7,62.4,27.91,North,-999,-999.0,-999.0,52,0.00,,,0.00,WSDL version 420,2013-08-28 22:25:00,
2013-08-28 18:30:00,81.4,62.3,27.91,North,-999,-999.0,-999.0,53,0.00,,,0.00,WSDL version 420,2013-08-28 22:30:00,
2013-08-28 18:35:00,81.2,62.5,27.91,North,-999,-999.0,-999.0,53,0.00,,,0.00,WSDL version 420,2013-08-28 22:35:00,
2013-08-28 18:40:00,81.0,62.1,27.91,North,-999,-999.0,-999.0,52,0.00,,,0.00,WSDL version 420,2013-08-28 22:40:00,
2013-08-28 18:45:00,81.3,62.5,27.91,North,-999,-999.0,-999.0,53,0.00,,,0.00,WSDL version 420,2013-08-28 22:45:00,
2013-08-28 18:50:00,81.0,62.2,27.91,North,-999,-999.0,-999.0,53,0.00,,,0.00,WSDL version 420,2013-08-28 22:50:00,
2013-08-28 18:55:00,80.9,62.2,27.91,North,-999,-999.0,-999.0,53,0.00,,,0.00,WSDL version 420,2013-08-28 22:55:00,
2013-08-28 19:00:00,80.7,62.0,27.91,North,-999,-999.0,-999.0,53,0.00,,,0.00,WSDL version 420,2013-08-28 23:00:00,
2013-08-28 19:05:00,80.3,61.8,27.91,North,-999,-999.0,-999.0,54,0.00,,,0.00,WSDL version 420,2013-08-28 23:05:00,
2013-08-28 19:10:00,80.1,61.9,27.91,North,-999,-999.0,-999.0,54,0.00,,,0.00,WSDL version 420,2013-08-28 23:10:00,
2013-08-28 19:15:00,79.8,61.7,27.91,North,-999,-999.0,-999.0,54,0.00,,,0.00,WSDL version 420,2013-08-28 23:15:00,
2013-08-28 19:20:00,79.7,61.6,27.91,North,-999,-999.0,-999.0,54,0.00,,,0.00,WSDL version 420,2013-08-28 23:20:00,
2013-08-28 19:25:00,79.5,61.4,27.91,North,-999,-999.0,-999.0,54,0.00,,,0.00,WSDL version 420,2013-08-28 23:25:00,
2013-08-28 19:30:00,79.3,61.3,27.91,North,-999,-999.0,-999.0,54,0.00,,,0.00,WSDL version 420,2013-08-28 23:30:00,
2013-08-28 19:35:00,79.2,61.2,27.91,North,-999,-999.0,-999.0,54,0.00,,,0.00,WSDL version 420,2013-08-28 23:35:00,
2013-08-28 19:40:00,79.1,61.2,27.91,North,-999,-999.0,-999.0,55,0.00,,,0.00,WSDL version 420,2013-08-28 23:40:00,
2013-08-28 19:45:00,78.9,61.4,27.91,North,-999,-999.0,-999.0,55,0.00,,,0.00,WSDL version 420,2013-08-28 23:45:00,
2013-08-28 19:50:00,78.8,61.3,27.91,North,-999,-999.0,-999.0,55,0.00,,,0.00,WSDL version 420,2013-08-28 23:50:00,
2013-08-28 19:55:00,78.6,61.5,27.91,North,-999,-999.0,-999.0,56,0.00,,,0.00,WSDL version 420,2013-08-28 23:55:00,
2013-08-28 20:00:00,78.4,61.7,27.91,North,-999,-999.0,-999.0,57,0.00,,,0.00,WSDL version 420,2013-08-29 00:00:00,
2013-08-28 20:07:00,78.2,61.7,27.91,North,-999,-999.0,-999.0,57,0.00,,,0.00,WSDL version 420,2013-08-29 00:07:00,
2013-08-28 20:12:00,78.0,61.5,27.91,North,-999,-999.0,-999.0,57,0.00,,,0.00,WSDL version 420,2013-08-29 00:12:00,
2013-08-28 20:17:00,77.9,61.9,27.91,North,-999,-999.0,-999.0,58,0.00,,,0.00,WSDL version 420,2013-08-29 00:17:00,
2013-08-28 20:22:00,77.7,61.8,27.91,North,-999,-999.0,-999.0,58,0.00,,,0.00,WSDL version 420,2013-08-29 00:22:00,
2013-08-28 20:27:00,77.5,61.6,27.91,North,-999,-999.0,-999.0,58,0.00,,,0.00,WSDL version 420,2013-08-29 00:27:00,
2013-08-28 20:32:00,77.4,61.7,27.91,North,-999,-999.0,-999.0,59,0.00,,,0.00,WSDL version 420,2013-08-29 00:32:00,
2013-08-28 20:37:00,77.2,61.8,27.91,North,-999,-999.0,-999.0,59,0.00,,,0.00,WSDL version 420,2013-08-29 00:37:00,
2013-08-28 20:42:00,77.0,61.6,27.91,North,-999,-999.0,-999.0,59,0.00,,,0.00,WSDL version 420,2013-08-29 00:42:00,
2013-08-28 20:47:00,76.8,61.9,27.91,East,90,0.9,0.9,60,0.00,,,0.00,WSDL version 420,2013-08-29 00:47:00,
2013-08-28 20:52:00,76.6,61.7,27.91,East,90,0.9,0.9,60,0.00,,,0.00,WSDL version 420,2013-08-29 00:52:00,
2013-08-28 20:57:00,76.6,61.7,27.91,East,90,0.9,0.9,60,0.00,,,0.00,WSDL version 420,2013-08-29 00:57:00,
2013-08-28 21:02:00,76.5,61.8,27.91,East,90,0.9,0.9,61,0.00,,,0.00,WSDL version 420,2013-08-29 01:02:00,
2013-08-28 21:07:00,76.5,61.9,27.91,North,-999,-999.0,-999.0,61,0.00,,,0.00,WSDL version 420,2013-08-29 01:07:00,
2013-08-28 21:12:00,76.3,61.9,27.91,SSW,203,1.6,1.6,61,0.00,,,0.00,WSDL version 420,2013-08-29 01:12:00,
2013-08-28 21:17:00,76.2,61.8,27.91,SSW,203,1.6,1.6,61,0.00,,,0.00,WSDL version 420,2013-08-29 01:17:00,
2013-08-28 21:22:00,76.1,61.7,27.91,SSW,203,1.6,1.6,61,0.00,,,0.00,WSDL version 420,2013-08-29 01:22:00,
2013-08-28 21:27:00,76.1,61.7,27.91,WSW,248,2.2,2.2,61,0.00,,,0.00,WSDL version 420,2013-08-29 01:27:00,
2013-08-28 21:32:00,75.9,61.5,27.91,WSW,248,2.2,2.2,61,0.00,,,0.00,WSDL version 420,2013-08-29 01:32:00,
2013-08-28 21:37:00,75.9,61.5,27.91,WSW,248,2.2,2.2,61,0.00,,,0.00,WSDL version 420,2013-08-29 01:37:00,
2013-08-28 21:42:00,75.7,61.8,27.91,North,0,0.0,2.2,62,0.00,,,0.00,WSDL version 420,2013-08-29 01:42:00,
2013-08-28 21:47:00,75.7,61.8,27.91,North,-999,-999.0,-999.0,62,0.00,,,0.00,WSDL version 420,2013-08-29 01:47:00,
2013-08-28 21:52:00,75.6,61.6,27.91,WNW,293,0.9,0.9,62,0.00,,,0.00,WSDL version 420,2013-08-29 01:52:00,
2013-08-28 21:57:00,75.6,61.6,27.91,WNW,293,0.9,0.9,62,0.00,,,0.00,WSDL version 420,2013-08-29 01:57:00,
2013-08-28 22:02:00,75.6,61.6,27.91,WNW,293,0.9,0.9,62,0.00,,,0.00,WSDL version 420,2013-08-29 02:02:00,
2013-08-28 22:07:00,75.4,61.5,27.91,North,-999,-999.0,-999.0,62,0.00,,,0.00,WSDL version 420,2013-08-29 02:07:00,
2013-08-28 22:12:00,75.6,61.8,27.91,North,-999,-999.0,-999.0,63,0.00,,,0.00,WSDL version 420,2013-08-29 02:12:00,
2013-08-28 22:17:00,75.4,61.9,27.91,North,-999,-999.0,-999.0,63,0.00,,,0.00,WSDL version 420,2013-08-29 02:17:00,
2013-08-28 22:22:00,75.3,61.6,27.91,East,90,0.0,0.0,62,0.00,,,0.00,WSDL version 420,2013-08-29 02:22:00,
2013-08-28 22:32:00,75.2,61.3,27.94,East,90,0.0,0.0,62,0.00,,,0.00,WSDL version 420,2013-08-29 02:32:00,
2013-08-28 22:37:00,75.2,61.5,27.94,North,-999,-999.0,-999.0,63,0.00,,,0.00,WSDL version 420,2013-08-29 02:37:00,
2013-08-28 22:42:00,75.2,61.8,27.94,North,-999,-999.0,-999.0,63,0.00,,,0.00,WSDL version 420,2013-08-29 02:42:00,
2013-08-28 22:47:00,75.2,61.9,27.94,North,-999,-999.0,-999.0,64,0.00,,,0.00,WSDL version 420,2013-08-29 02:47:00,
2013-08-28 22:52:00,75.0,62.0,27.94,North,-999,-999.0,-999.0,64,0.00,,,0.00,WSDL version 420,2013-08-29 02:52:00,
2013-08-28 22:57:00,75.0,62.2,27.94,North,-999,-999.0,-999.0,65,0.00,,,0.00,WSDL version 420,2013-08-29 02:57:00,
2013-08-28 23:02:00,75.0,62.4,27.94,North,-999,-999.0,-999.0,65,0.00,,,0.00,WSDL version 420,2013-08-29 03:02:00,
2013-08-28 23:07:00,74.8,62.3,27.94,North,-999,-999.0,-999.0,65,0.00,,,0.00,WSDL version 420,2013-08-29 03:07:00,
2013-08-28 23:12:00,74.8,62.3,27.94,North,-999,-999.0,-999.0,65,0.00,,,0.00,WSDL version 420,2013-08-29 03:12:00,
2013-08-28 23:17:00,74.8,62.3,27.94,SSW,203,2.2,2.2,65,0.00,,,0.00,WSDL version 420,2013-08-29 03:17:00,
2013-08-28 23:22:00,74.8,62.2,27.94,SSW,203,2.2,2.2,65,0.00,,,0.00,WSDL version 420,2013-08-29 03:22:00,
2013-08-28 23:27:00,74.7,62.3,27.94,SSW,203,2.2,2.2,66,0.00,,,0.00,WSDL version 420,2013-08-29 03:27:00,
2013-08-28 23:32:00,74.7,62.6,27.91,North,-999,-999.0,-999.0,66,0.00,,,0.00,WSDL version 420,2013-08-29 03:32:00,
2013-08-28 23:37:00,74.5,62.4,27.91,North,-999,-999.0,-999.0,66,0.00,,,0.00,WSDL version 420,2013-08-29 03:37:00,
2013-08-28 23:42:00,74.5,62.4,27.91,North,-999,-999.0,-999.0,66,0.00,,,0.00,WSDL version 420,2013-08-29 03:42:00,
2013-08-28 23:47:00,74.5,62.7,27.91,North,-999,-999.0,-999.0,67,0.00,,,0.00,WSDL version 420,2013-08-29 03:47:00,
2013-08-28 23:52:00,74.5,62.8,27.91,North,-999,-999.0,-999.0,67,0.00,,,0.00,WSDL version 420,2013-08-29 03:52:00,
2013-08-28 23:57:00,74.5,62.8,27.91,North,-999,-999.0,-999.0,67,0.00,,,0.00,WSDL version 420,2013-08-29 03:57:00,